createdAt,value
2023-05-16T00:00:10.199Z,30.70
2023-05-16T00:02:39.733Z,32.33
2023-05-16T00:05:10.717Z,32.60
2023-05-16T00:07:40.470Z,32.73
2023-05-16T00:10:10.075Z,32.70
2023-05-16T00:12:39.631Z,39.20
2023-05-16T00:15:12.839Z,32.40
2023-05-16T00:17:43.833Z,32.00
2023-05-16T00:20:14.289Z,35.53
2023-05-16T00:22:44.235Z,38.10
2023-05-16T00:25:12.724Z,31.90
2023-05-16T00:27:41.040Z,31.07
2023-05-16T00:30:12.071Z,31.50
2023-05-16T00:32:40.434Z,31.70
2023-05-16T00:35:10.760Z,32.23
2023-05-16T00:37:39.484Z,30.50
2023-05-16T00:40:10.884Z,29.57
2023-05-16T00:42:39.872Z,33.47
2023-05-16T00:45:10.437Z,27.83
2023-05-16T00:47:39.053Z,30.13
2023-05-16T00:50:08.524Z,28.10
2023-05-16T00:52:36.994Z,33.13
2023-05-16T00:55:09.013Z,28.70
2023-05-16T00:57:37.764Z,30.47
2023-05-16T01:00:09.362Z,29.77
2023-05-16T01:02:39.354Z,29.50
2023-05-16T01:05:08.600Z,29.73
2023-05-16T01:07:37.488Z,27.03
2023-05-16T01:10:09.701Z,27.10
2023-05-16T01:12:43.500Z,26.47
2023-05-16T01:15:19.351Z,25.33
2023-05-16T01:18:08.010Z,26.87
2023-05-16T01:20:48.259Z,25.00
2023-05-16T01:23:35.576Z,26.27
2023-05-16T01:26:17.070Z,26.53
2023-05-16T01:28:47.767Z,25.37
2023-05-16T01:31:16.530Z,24.70
2023-05-16T01:33:46.613Z,24.70
2023-05-16T01:36:25.456Z,25.20
2023-05-16T01:39:16.395Z,25.57
2023-05-16T01:41:58.337Z,24.20
2023-05-16T01:44:33.670Z,27.63
2023-05-16T01:47:09.283Z,25.67
2023-05-16T01:49:45.297Z,22.70
2023-05-16T01:52:21.740Z,23.47
2023-05-16T01:54:53.578Z,24.43
2023-05-16T01:57:27.653Z,23.20
2023-05-16T01:59:56.370Z,21.53
2023-05-16T02:02:24.798Z,21.80
2023-05-16T02:04:53.196Z,21.63
2023-05-16T02:07:21.902Z,20.97
2023-05-16T02:09:50.280Z,23.57
2023-05-16T02:12:19.017Z,23.67
2023-05-16T02:14:48.759Z,21.70
2023-05-16T02:17:17.277Z,24.43
2023-05-16T02:19:45.698Z,23.97
2023-05-16T02:22:14.125Z,22.33
2023-05-16T02:24:42.505Z,22.10
2023-05-16T02:27:10.889Z,23.97
2023-05-16T02:29:39.214Z,24.83
2023-05-16T02:32:09.569Z,27.13
2023-05-16T02:34:37.908Z,22.00
2023-05-16T02:37:06.950Z,25.40
2023-05-16T02:39:35.338Z,25.97
2023-05-16T02:42:03.850Z,25.10
2023-05-16T02:44:32.357Z,24.97
2023-05-16T02:47:00.784Z,23.27
2023-05-16T02:49:30.541Z,22.30
2023-05-16T02:51:58.923Z,24.33
2023-05-16T02:54:27.383Z,23.90
2023-05-16T02:56:55.759Z,25.63
2023-05-16T02:59:24.235Z,25.57
2023-05-16T03:01:52.599Z,27.63
2023-05-16T03:04:21.145Z,26.40
2023-05-16T03:06:52.244Z,27.43
2023-05-16T03:09:20.763Z,24.67
2023-05-16T03:11:49.150Z,25.00
2023-05-16T03:14:17.601Z,25.30
2023-05-16T03:16:48.382Z,25.77
2023-05-16T03:19:16.934Z,26.87
2023-05-16T03:21:45.477Z,25.63
2023-05-16T03:24:16.459Z,27.03
2023-05-16T03:26:45.648Z,28.80
2023-05-16T03:29:13.998Z,25.50
2023-05-16T03:31:42.651Z,27.73
2023-05-16T03:34:11.052Z,26.83
2023-05-16T03:36:42.229Z,26.97
2023-05-16T03:39:10.744Z,26.33
2023-05-16T03:41:40.486Z,28.23
2023-05-16T03:44:08.853Z,27.77
2023-05-16T03:46:37.481Z,27.43
2023-05-16T03:49:06.386Z,28.80
2023-05-16T03:51:34.893Z,28.20
2023-05-16T03:54:03.301Z,31.80
2023-05-16T03:56:31.718Z,29.67
2023-05-16T03:59:01.423Z,32.37
2023-05-16T04:01:29.850Z,28.00
2023-05-16T04:03:58.177Z,34.43
2023-05-16T04:06:27.078Z,29.93
2023-05-16T04:08:55.469Z,33.10
2023-05-16T04:11:23.862Z,25.67
2023-05-16T04:13:52.357Z,24.40
2023-05-16T04:16:22.142Z,26.00
2023-05-16T04:18:50.827Z,27.17
2023-05-16T04:21:19.359Z,26.20
2023-05-16T04:23:47.871Z,24.40
2023-05-16T04:26:16.323Z,28.60
2023-05-16T04:28:44.888Z,26.97
2023-05-16T04:31:14.486Z,24.80
2023-05-16T04:33:44.429Z,23.73
2023-05-16T04:36:12.816Z,23.20
2023-05-16T04:38:41.929Z,22.77
2023-05-16T04:41:10.581Z,21.10
2023-05-16T04:43:39.102Z,19.13
2023-05-16T04:46:07.822Z,18.90
2023-05-16T04:48:36.333Z,21.43
2023-05-16T04:51:06.609Z,19.90
2023-05-16T04:53:35.132Z,19.03
2023-05-16T04:56:05.354Z,18.67
2023-05-16T04:58:33.733Z,18.87
2023-05-16T05:01:02.134Z,18.20
2023-05-16T05:03:30.692Z,18.70
2023-05-16T05:05:59.100Z,17.00
2023-05-16T05:08:28.908Z,13.60
2023-05-16T05:10:57.915Z,11.40
2023-05-16T05:13:26.306Z,13.70
2023-05-16T05:15:54.678Z,13.03
2023-05-16T05:18:23.179Z,11.73
2023-05-16T05:20:52.770Z,11.03
2023-05-16T05:23:21.370Z,7.50
2023-05-16T05:25:51.813Z,7.03
2023-05-16T05:28:20.259Z,8.20
2023-05-16T05:30:49.298Z,6.50
2023-05-16T05:33:19.829Z,5.10
2023-05-16T05:35:48.228Z,6.40
2023-05-16T05:38:16.786Z,5.93
2023-05-16T05:40:45.083Z,9.40
2023-05-16T05:43:15.042Z,6.47
2023-05-16T05:45:43.754Z,5.87
2023-05-16T05:48:12.619Z,5.83
2023-05-16T05:50:41.438Z,6.20
2023-05-16T05:53:09.920Z,11.27
2023-05-16T05:55:38.346Z,7.30
2023-05-16T05:58:07.424Z,6.00
2023-05-16T06:00:37.187Z,5.03
2023-05-16T06:03:06.183Z,4.13
2023-05-16T06:05:34.702Z,2.97
2023-05-16T06:08:03.114Z,2.60
2023-05-16T06:10:31.750Z,2.43
2023-05-16T06:13:00.188Z,1.53
2023-05-16T06:15:28.871Z,1.40
2023-05-16T06:17:59.402Z,1.87
2023-05-16T06:20:28.113Z,4.13
2023-05-16T06:22:56.539Z,2.17
2023-05-16T06:25:24.968Z,2.97
2023-05-16T06:27:53.560Z,4.07
2023-05-16T06:30:21.981Z,4.60
2023-05-16T06:32:51.191Z,3.83
2023-05-16T06:35:21.121Z,5.80
2023-05-16T06:37:49.708Z,3.80
2023-05-16T06:40:18.511Z,6.67
2023-05-16T06:42:46.946Z,4.60
2023-05-16T06:45:15.427Z,4.30
2023-05-16T06:47:43.934Z,4.60
2023-05-16T06:50:12.679Z,3.97
2023-05-16T06:52:43.070Z,3.93
2023-05-16T06:55:12.575Z,4.33
2023-05-16T06:57:41.124Z,5.87
2023-05-16T07:00:11.030Z,4.70
2023-05-16T07:02:39.557Z,5.30
2023-05-16T07:05:09.490Z,5.00
2023-05-16T07:07:37.955Z,4.50
2023-05-16T07:10:09.214Z,5.00
2023-05-16T07:12:38.572Z,3.90
2023-05-16T07:15:09.101Z,4.03
2023-05-16T07:17:38.191Z,4.40
2023-05-16T07:20:08.263Z,4.63
2023-05-16T07:22:36.639Z,3.23
2023-05-16T07:25:12.471Z,4.10
2023-05-16T07:27:44.597Z,2.40
2023-05-16T07:30:15.359Z,2.60
2023-05-16T07:32:43.964Z,1.37
2023-05-16T07:35:13.398Z,1.50
2023-05-16T07:37:43.536Z,1.20
2023-05-16T07:40:14.578Z,1.20
2023-05-16T07:42:43.049Z,3.07
2023-05-16T07:45:11.902Z,2.00
2023-05-16T07:47:40.758Z,1.07
2023-05-16T07:50:10.634Z,3.40
2023-05-16T07:52:39.028Z,1.20
2023-05-16T07:55:09.409Z,0.90
2023-05-16T07:57:39.344Z,0.90
2023-05-16T08:00:09.788Z,1.27
2023-05-16T08:02:41.474Z,0.53
2023-05-16T08:05:11.100Z,0.77
2023-05-16T08:07:39.653Z,0.90
2023-05-16T08:10:11.816Z,2.10
2023-05-16T08:12:45.247Z,0.90
2023-05-16T08:15:13.726Z,3.10
2023-05-16T08:17:42.382Z,0.90
2023-05-16T08:20:12.293Z,1.60
2023-05-16T08:22:40.842Z,2.60
2023-05-16T08:25:09.986Z,1.23
2023-05-16T08:27:38.461Z,0.80
2023-05-16T08:30:11.428Z,2.27
2023-05-16T08:32:40.040Z,1.13
2023-05-16T08:35:11.085Z,0.97
2023-05-16T08:37:39.740Z,1.23
2023-05-16T08:40:11.634Z,3.70
2023-05-16T08:42:41.496Z,1.30
2023-05-16T08:45:13.343Z,1.93
2023-05-16T08:47:44.417Z,1.40
2023-05-16T08:50:13.336Z,2.20
2023-05-16T08:52:45.009Z,2.10
2023-05-16T08:55:14.465Z,3.57
2023-05-16T08:57:42.989Z,2.30
2023-05-16T09:00:15.110Z,3.47
2023-05-16T09:02:44.925Z,3.30
2023-05-16T09:05:16.329Z,2.90
2023-05-16T09:07:46.135Z,2.80
2023-05-16T09:10:15.127Z,3.10
2023-05-16T09:12:43.898Z,2.00
2023-05-16T09:15:14.009Z,2.63
2023-05-16T09:17:48.176Z,3.00
2023-05-16T09:20:21.152Z,3.37
2023-05-16T09:22:54.577Z,4.63
2023-05-16T09:27:55.962Z,4.37
2023-05-16T09:30:31.524Z,2.70
2023-05-16T09:33:00.611Z,3.00
2023-05-16T09:38:00.630Z,3.47
2023-05-16T09:40:29.154Z,2.80
2023-05-16T09:43:05.895Z,1.83
2023-05-16T09:45:37.599Z,1.60
2023-05-16T09:48:08.808Z,2.80
2023-05-16T09:50:39.024Z,1.50
2023-05-16T09:53:07.977Z,1.83
2023-05-16T09:55:36.509Z,2.43
2023-05-16T09:58:04.971Z,2.50
2023-05-16T10:00:36.043Z,1.60
2023-05-16T10:03:05.741Z,4.27
2023-05-16T10:05:35.918Z,3.13
2023-05-16T10:08:05.733Z,3.63
2023-05-16T10:10:38.455Z,3.80
2023-05-16T10:13:09.022Z,3.70
2023-05-16T10:15:40.115Z,4.23
2023-05-16T10:18:13.287Z,3.57
2023-05-16T10:20:44.316Z,3.30
2023-05-16T10:23:20.035Z,2.20
2023-05-16T10:25:50.658Z,6.37
2023-05-16T10:28:19.935Z,3.30
2023-05-16T10:30:50.665Z,3.87
2023-05-16T10:33:20.533Z,7.00
2023-05-16T10:35:49.121Z,6.27
2023-05-16T10:38:20.785Z,4.03
2023-05-16T10:40:50.202Z,5.93
2023-05-16T10:43:26.862Z,4.53
2023-05-16T10:46:05.541Z,3.10
2023-05-16T10:48:35.879Z,6.77
2023-05-16T10:51:06.294Z,4.33
2023-05-16T10:53:36.600Z,11.07
2023-05-16T10:56:12.832Z,6.87
2023-05-16T10:58:46.111Z,3.87
2023-05-16T11:01:22.718Z,5.83
2023-05-16T11:04:11.623Z,6.03
2023-05-16T11:07:00.066Z,7.10
2023-05-16T11:09:30.873Z,7.90
2023-05-16T11:12:03.347Z,5.40
2023-05-16T11:14:39.273Z,6.33
2023-05-16T11:17:15.010Z,11.00
2023-05-16T11:19:46.092Z,6.00
2023-05-16T11:22:24.418Z,4.80
2023-05-16T11:24:59.070Z,6.77
2023-05-16T11:27:30.952Z,4.70
2023-05-16T11:30:12.276Z,4.77
2023-05-16T11:32:45.104Z,5.73
2023-05-16T11:35:15.641Z,3.93
2023-05-16T11:37:44.718Z,5.93
2023-05-16T11:40:15.703Z,3.43
2023-05-16T11:42:47.644Z,5.87
2023-05-16T11:45:18.757Z,4.53
2023-05-16T11:47:50.700Z,3.50
2023-05-16T11:50:22.101Z,5.63
2023-05-16T11:52:53.874Z,3.67
2023-05-16T11:55:40.364Z,5.17
2023-05-16T11:58:12.292Z,3.37
2023-05-16T12:00:50.282Z,7.33
2023-05-16T12:03:21.652Z,2.30
2023-05-16T12:05:54.350Z,4.53
2023-05-16T12:08:24.754Z,4.60
2023-05-16T12:10:54.585Z,2.90
2023-05-16T12:13:25.840Z,4.77
2023-05-16T12:15:54.912Z,7.10
2023-05-16T12:18:26.452Z,4.20
2023-05-16T12:20:54.954Z,8.53
2023-05-16T12:23:23.396Z,2.50
2023-05-16T12:25:53.950Z,4.53
2023-05-16T12:28:22.518Z,3.30
2023-05-16T12:30:51.097Z,3.63
2023-05-16T12:33:19.956Z,3.23
2023-05-16T12:35:51.757Z,4.50
2023-05-16T12:38:22.183Z,3.40
2023-05-16T12:40:51.489Z,2.93
2023-05-16T12:43:23.060Z,3.23
2023-05-16T12:45:53.997Z,3.77
2023-05-16T12:48:23.308Z,3.90
2023-05-16T12:50:53.503Z,1.47
2023-05-16T12:53:21.940Z,3.53
2023-05-16T12:55:50.338Z,3.00
2023-05-16T12:58:19.857Z,2.73
2023-05-16T13:00:48.655Z,3.67
2023-05-16T13:03:17.455Z,3.57
2023-05-16T13:05:46.025Z,4.40
2023-05-16T13:08:16.103Z,3.50
2023-05-16T13:10:44.926Z,2.23
2023-05-16T13:13:22.021Z,5.10
2023-05-16T13:15:59.652Z,4.83
2023-05-16T13:18:28.203Z,5.70
2023-05-16T13:20:56.887Z,3.63
2023-05-16T13:23:27.137Z,4.27
2023-05-16T13:25:55.916Z,2.33
2023-05-16T13:28:24.487Z,4.70
2023-05-16T13:30:53.138Z,5.27
2023-05-16T13:33:22.829Z,8.50
2023-05-16T13:35:51.478Z,2.97
2023-05-16T13:38:20.004Z,3.57
2023-05-16T13:40:49.820Z,3.27
2023-05-16T13:43:18.418Z,3.17
2023-05-16T13:45:47.091Z,3.20
2023-05-16T13:48:15.868Z,5.67
2023-05-16T13:50:44.876Z,3.80
2023-05-16T13:53:13.921Z,3.80
2023-05-16T13:55:42.563Z,2.80
2023-05-16T13:58:12.337Z,6.77
2023-05-16T14:00:44.974Z,2.67
2023-05-16T14:03:14.538Z,2.77
2023-05-16T14:05:43.138Z,8.23
2023-05-16T14:08:11.508Z,3.43
2023-05-16T14:10:39.920Z,1.97
2023-05-16T14:13:08.375Z,2.10
2023-05-16T14:15:38.201Z,2.23
2023-05-16T14:18:07.590Z,5.03
2023-05-16T14:20:35.994Z,2.50
2023-05-16T14:23:04.350Z,2.30
2023-05-16T14:25:32.968Z,3.67
2023-05-16T14:28:01.287Z,3.60
2023-05-16T14:30:29.890Z,5.20
2023-05-16T14:33:01.299Z,3.00
2023-05-16T14:35:30.180Z,3.13
2023-05-16T14:37:58.790Z,2.80
2023-05-16T14:40:27.467Z,5.53
2023-05-16T14:42:55.903Z,4.40
2023-05-16T14:45:24.344Z,5.37
2023-05-16T14:47:53.508Z,1.00
2023-05-16T14:50:23.561Z,2.30
2023-05-16T14:52:53.082Z,3.50
2023-05-16T14:55:22.667Z,2.67
2023-05-16T14:57:57.092Z,3.27
2023-05-16T15:00:28.244Z,5.53
2023-05-16T15:02:56.926Z,1.57
2023-05-16T15:05:27.094Z,2.77
2023-05-16T15:07:55.744Z,5.23
2023-05-16T15:10:24.309Z,3.90
2023-05-16T15:12:53.981Z,4.20
2023-05-16T15:15:22.372Z,3.47
2023-05-16T15:17:50.929Z,6.67
2023-05-16T15:20:21.857Z,2.93
2023-05-16T15:22:52.361Z,4.00
2023-05-16T15:25:21.170Z,4.10
2023-05-16T15:27:49.634Z,4.97
2023-05-16T15:30:18.246Z,4.20
2023-05-16T15:32:46.637Z,4.27
2023-05-16T15:35:15.096Z,4.37
2023-05-16T15:37:43.831Z,4.30
2023-05-16T15:40:15.213Z,5.70
2023-05-16T15:42:44.403Z,2.23
2023-05-16T15:45:13.511Z,2.70
2023-05-16T15:47:43.127Z,2.90
2023-05-16T15:50:12.669Z,5.80
2023-05-16T15:52:41.194Z,5.93
2023-05-16T15:55:12.020Z,1.87
2023-05-16T15:57:43.878Z,4.27
2023-05-16T16:00:14.087Z,2.07
2023-05-16T16:02:45.349Z,1.60
2023-05-16T16:05:13.860Z,4.13
2023-05-16T16:07:42.343Z,4.70
2023-05-16T16:10:12.422Z,5.93
2023-05-16T16:12:42.316Z,2.20
2023-05-16T16:15:12.434Z,1.50
2023-05-16T16:17:41.011Z,3.63
2023-05-16T16:20:10.665Z,4.50
2023-05-16T16:22:39.105Z,4.60
2023-05-16T16:25:11.784Z,3.23
2023-05-16T16:27:41.621Z,4.30
2023-05-16T16:30:11.273Z,4.00
2023-05-16T16:32:39.804Z,3.93
2023-05-16T16:35:09.110Z,5.80
2023-05-16T16:37:37.692Z,1.93
2023-05-16T16:40:10.253Z,5.67
2023-05-16T16:42:40.530Z,1.70
2023-05-16T16:45:11.837Z,1.83
2023-05-16T16:47:40.560Z,2.40
2023-05-16T16:50:11.153Z,2.50
2023-05-16T16:52:39.631Z,4.90
2023-05-16T16:55:09.093Z,2.20
2023-05-16T16:57:37.570Z,2.63
2023-05-16T17:00:11.500Z,2.20
2023-05-16T17:02:41.613Z,2.13
2023-05-16T17:05:12.206Z,2.07
2023-05-16T17:07:40.725Z,4.17
2023-05-16T17:10:10.720Z,4.57
2023-05-16T17:12:46.118Z,3.83
2023-05-16T17:15:14.496Z,5.03
2023-05-16T17:17:45.637Z,4.70
2023-05-16T17:20:14.620Z,3.60
2023-05-16T17:22:43.034Z,5.23
2023-05-16T17:25:11.982Z,6.47
2023-05-16T17:27:40.784Z,4.50
2023-05-16T17:30:10.933Z,5.80
2023-05-16T17:32:39.883Z,6.60
2023-05-16T17:35:10.733Z,3.13
2023-05-16T17:37:39.315Z,4.43
2023-05-16T17:40:12.010Z,3.60
2023-05-16T17:42:40.455Z,3.07
2023-05-16T17:45:12.169Z,2.60
2023-05-16T17:47:41.253Z,6.43
2023-05-16T17:50:12.053Z,2.50
2023-05-16T17:52:40.628Z,6.33
2023-05-16T17:55:11.059Z,4.27
2023-05-16T17:57:40.580Z,1.50
2023-05-16T18:00:10.678Z,1.83
2023-05-16T18:02:40.093Z,4.10
2023-05-16T18:05:12.099Z,4.67
2023-05-16T18:07:41.073Z,3.53
2023-05-16T18:10:11.461Z,3.03
2023-05-16T18:12:41.623Z,3.70
2023-05-16T18:15:12.681Z,2.50
2023-05-16T18:17:41.207Z,4.50
2023-05-16T18:20:13.113Z,3.07
2023-05-16T18:22:42.853Z,2.57
2023-05-16T18:25:12.325Z,3.33
2023-05-16T18:27:40.844Z,3.50
2023-05-16T18:30:13.235Z,2.80
2023-05-16T18:32:41.785Z,1.80
2023-05-16T18:35:13.283Z,3.13
2023-05-16T18:37:43.548Z,3.70
2023-05-16T18:40:14.047Z,4.70
2023-05-16T18:42:42.516Z,4.57
2023-05-16T18:45:12.316Z,3.83
2023-05-16T18:47:41.419Z,4.73
2023-05-16T18:50:12.448Z,3.67
2023-05-16T18:52:41.563Z,4.73
2023-05-16T18:55:11.137Z,3.30
2023-05-16T18:57:39.633Z,2.37
2023-05-16T19:00:10.340Z,3.87
2023-05-16T19:02:42.537Z,6.20
2023-05-16T19:05:14.405Z,2.50
2023-05-16T19:07:43.188Z,4.23
2023-05-16T19:10:12.444Z,5.50
2023-05-16T19:12:40.812Z,4.77
2023-05-16T19:15:11.902Z,3.50
2023-05-16T19:17:41.767Z,2.60
2023-05-16T19:20:12.364Z,3.80
2023-05-16T19:22:40.971Z,3.17
2023-05-16T19:25:10.726Z,4.37
2023-05-16T19:27:39.290Z,3.80
2023-05-16T19:30:09.833Z,5.80
2023-05-16T19:32:38.491Z,2.90
2023-05-16T19:35:07.992Z,3.80
2023-05-16T19:37:38.130Z,4.40
2023-05-16T19:40:10.143Z,3.50
2023-05-16T19:42:38.686Z,8.90
2023-05-16T19:45:09.132Z,2.50
2023-05-16T19:47:37.829Z,3.10
2023-05-16T19:50:07.987Z,4.07
2023-05-16T19:52:38.957Z,2.80
2023-05-16T19:55:10.537Z,3.47
2023-05-16T19:57:38.939Z,2.67
2023-05-16T20:00:09.611Z,3.93
2023-05-16T20:02:45.006Z,4.13
2023-05-16T20:05:14.486Z,2.90
2023-05-16T20:07:44.313Z,4.27
2023-05-16T20:10:13.085Z,5.67
2023-05-16T20:12:41.447Z,9.40
2023-05-16T20:15:11.654Z,7.43
2023-05-16T20:17:41.222Z,1.37
2023-05-16T20:20:11.167Z,5.13
2023-05-16T20:22:41.571Z,3.07
2023-05-16T20:25:12.516Z,5.20
2023-05-16T20:27:42.228Z,5.70
2023-05-16T20:30:11.670Z,4.57
2023-05-16T20:32:40.610Z,3.80
2023-05-16T20:35:11.456Z,3.73
2023-05-16T20:37:41.451Z,4.00
2023-05-16T20:40:12.903Z,5.13
2023-05-16T20:42:41.992Z,2.83
2023-05-16T20:45:14.934Z,4.07
2023-05-16T20:47:43.898Z,4.57
2023-05-16T20:50:12.992Z,6.53
2023-05-16T20:52:41.664Z,3.40
2023-05-16T20:55:11.724Z,4.13
2023-05-16T20:57:42.377Z,4.17
2023-05-16T21:00:14.210Z,5.10
2023-05-16T21:02:42.812Z,4.70
2023-05-16T21:05:34.806Z,4.60
2023-05-16T21:08:00.469Z,3.50
2023-05-16T21:10:30.498Z,4.30
2023-05-16T21:12:59.498Z,4.67
2023-05-16T21:15:28.340Z,4.00
2023-05-16T21:17:57.550Z,2.77
2023-05-16T21:20:28.496Z,6.77
2023-05-16T21:22:57.409Z,3.67
2023-05-16T21:25:26.146Z,4.30
2023-05-16T21:27:56.350Z,4.70
2023-05-16T21:30:25.116Z,3.47
2023-05-16T21:32:53.633Z,5.60
2023-05-16T21:35:22.500Z,3.97
2023-05-16T21:37:51.417Z,6.03
2023-05-16T21:40:25.048Z,2.60
2023-05-16T21:42:55.597Z,3.33
2023-05-16T21:45:24.384Z,3.50
2023-05-16T21:47:53.017Z,5.13
2023-05-16T21:50:21.917Z,4.90
2023-05-16T21:52:50.721Z,4.53
2023-05-16T21:55:19.477Z,18.43
2023-05-16T21:57:48.039Z,6.00
2023-05-16T22:00:19.165Z,3.47
2023-05-16T22:02:48.696Z,4.50
2023-05-16T22:05:19.218Z,5.07
2023-05-16T22:07:48.190Z,4.07
2023-05-16T22:10:16.975Z,5.73
2023-05-16T22:12:45.444Z,3.57
2023-05-16T22:15:14.024Z,7.20
2023-05-16T22:17:43.937Z,4.17
2023-05-16T22:20:13.062Z,3.00
2023-05-16T22:22:42.178Z,2.80
2023-05-16T22:25:10.922Z,14.33
2023-05-16T22:27:39.532Z,3.53
2023-05-16T22:30:09.805Z,4.03
2023-05-16T22:32:38.335Z,6.07
2023-05-16T22:35:09.172Z,3.40
2023-05-16T22:37:39.685Z,6.70
2023-05-16T22:40:10.275Z,3.43
2023-05-16T22:42:38.680Z,4.10
2023-05-16T22:45:08.549Z,3.23
2023-05-16T22:47:36.960Z,3.50
2023-05-16T22:50:07.880Z,4.43
2023-05-16T22:52:41.133Z,5.50
2023-05-16T22:55:10.471Z,3.03
2023-05-16T22:57:38.902Z,5.30
2023-05-16T23:00:09.395Z,3.47
2023-05-16T23:02:37.824Z,6.17
2023-05-16T23:05:09.365Z,5.00
2023-05-16T23:07:37.719Z,7.03
2023-05-16T23:10:07.756Z,4.07
2023-05-16T23:12:36.176Z,3.93
2023-05-16T23:15:06.505Z,7.70
2023-05-16T23:17:34.856Z,4.47
2023-05-16T23:20:03.298Z,6.03
2023-05-16T23:22:33.076Z,5.30
2023-05-16T23:25:01.509Z,2.93
2023-05-16T23:27:29.896Z,2.87
2023-05-16T23:29:58.488Z,5.67
2023-05-16T23:32:26.948Z,4.53
2023-05-16T23:34:55.638Z,4.30
2023-05-16T23:37:23.987Z,5.90
2023-05-16T23:39:53.771Z,4.07
2023-05-16T23:42:22.137Z,3.93
2023-05-16T23:44:50.704Z,5.03
2023-05-16T23:47:19.055Z,3.27
2023-05-16T23:49:47.381Z,5.00
2023-05-16T23:52:15.757Z,5.80
2023-05-16T23:54:45.405Z,3.10
2023-05-16T23:57:15.202Z,2.40
2023-05-16T23:59:43.577Z,4.33
